sensor_id;sensor_type;location;lat;lon;timestamp;P1;durP1;ratioP1;P2;durP2;ratioP2
68250;SDS011;55066;51.560;4.642;2023-03-05T00:01:58;8.20;;;3.33;;
68250;SDS011;55066;51.560;4.642;2023-03-05T00:04:24;12.00;;;3.23;;
68250;SDS011;55066;51.560;4.642;2023-03-05T00:06:50;11.13;;;3.55;;
68250;SDS011;55066;51.560;4.642;2023-03-05T00:09:16;10.13;;;3.43;;
68250;SDS011;55066;51.560;4.642;2023-03-05T00:11:41;10.68;;;3.40;;
68250;SDS011;55066;51.560;4.642;2023-03-05T00:14:07;8.60;;;3.30;;
68250;SDS011;55066;51.560;4.642;2023-03-05T00:16:34;10.95;;;3.40;;
68250;SDS011;55066;51.560;4.642;2023-03-05T00:18:59;9.93;;;3.87;;
68250;SDS011;55066;51.560;4.642;2023-03-05T00:23:52;7.45;;;3.00;;
68250;SDS011;55066;51.560;4.642;2023-03-05T00:26:19;12.02;;;3.90;;
68250;SDS011;55066;51.560;4.642;2023-03-05T00:28:48;10.00;;;3.63;;
68250;SDS011;55066;51.560;4.642;2023-03-05T00:31:16;7.35;;;3.05;;
68250;SDS011;55066;51.560;4.642;2023-03-05T00:33:42;14.17;;;4.10;;
68250;SDS011;55066;51.560;4.642;2023-03-05T00:36:08;9.90;;;3.30;;
68250;SDS011;55066;51.560;4.642;2023-03-05T00:38:35;14.57;;;3.75;;
68250;SDS011;55066;51.560;4.642;2023-03-05T00:41:00;10.60;;;3.50;;
68250;SDS011;55066;51.560;4.642;2023-03-05T00:43:26;10.68;;;4.15;;
68250;SDS011;55066;51.560;4.642;2023-03-05T00:45:52;9.05;;;3.53;;
68250;SDS011;55066;51.560;4.642;2023-03-05T00:48:18;18.38;;;4.65;;
68250;SDS011;55066;51.560;4.642;2023-03-05T00:50:43;10.70;;;3.60;;
68250;SDS011;55066;51.560;4.642;2023-03-05T00:53:09;14.87;;;4.23;;
68250;SDS011;55066;51.560;4.642;2023-03-05T00:55:34;11.07;;;3.90;;
68250;SDS011;55066;51.560;4.642;2023-03-05T00:58:00;12.07;;;3.97;;
68250;SDS011;55066;51.560;4.642;2023-03-05T01:00:26;10.25;;;3.88;;
68250;SDS011;55066;51.560;4.642;2023-03-05T01:02:52;11.97;;;3.33;;
68250;SDS011;55066;51.560;4.642;2023-03-05T01:05:18;12.30;;;3.87;;
68250;SDS011;55066;51.560;4.642;2023-03-05T01:07:43;13.27;;;3.85;;
68250;SDS011;55066;51.560;4.642;2023-03-05T01:10:09;8.67;;;3.00;;
68250;SDS011;55066;51.560;4.642;2023-03-05T01:12:35;11.27;;;3.58;;
68250;SDS011;55066;51.560;4.642;2023-03-05T01:15:01;12.27;;;3.50;;
68250;SDS011;55066;51.560;4.642;2023-03-05T01:17:27;9.75;;;3.90;;
68250;SDS011;55066;51.560;4.642;2023-03-05T01:19:52;8.80;;;3.70;;
68250;SDS011;55066;51.560;4.642;2023-03-05T01:22:17;9.70;;;3.60;;
68250;SDS011;55066;51.560;4.642;2023-03-05T01:24:43;12.90;;;3.70;;
68250;SDS011;55066;51.560;4.642;2023-03-05T01:27:08;12.80;;;3.50;;
68250;SDS011;55066;51.560;4.642;2023-03-05T01:29:35;8.82;;;3.20;;
68250;SDS011;55066;51.560;4.642;2023-03-05T01:32:01;11.80;;;3.60;;
68250;SDS011;55066;51.560;4.642;2023-03-05T01:34:26;8.43;;;3.05;;
68250;SDS011;55066;51.560;4.642;2023-03-05T01:36:51;8.83;;;3.20;;
68250;SDS011;55066;51.560;4.642;2023-03-05T01:39:17;13.43;;;3.40;;
68250;SDS011;55066;51.560;4.642;2023-03-05T01:41:42;11.40;;;3.00;;
68250;SDS011;55066;51.560;4.642;2023-03-05T01:44:19;8.40;;;2.85;;
68250;SDS011;55066;51.560;4.642;2023-03-05T01:46:47;11.10;;;3.50;;
68250;SDS011;55066;51.560;4.642;2023-03-05T01:49:18;9.52;;;3.05;;
68250;SDS011;55066;51.560;4.642;2023-03-05T01:54:44;10.23;;;3.40;;
68250;SDS011;55066;51.560;4.642;2023-03-05T01:57:17;8.13;;;2.88;;
68250;SDS011;55066;51.560;4.642;2023-03-05T01:59:47;11.25;;;3.13;;
68250;SDS011;55066;51.560;4.642;2023-03-05T02:02:17;10.32;;;3.20;;
68250;SDS011;55066;51.560;4.642;2023-03-05T02:04:48;8.05;;;3.55;;
68250;SDS011;55066;51.560;4.642;2023-03-05T02:07:16;12.90;;;3.17;;
68250;SDS011;55066;51.560;4.642;2023-03-05T02:09:42;15.23;;;3.53;;
68250;SDS011;55066;51.560;4.642;2023-03-05T02:12:08;9.20;;;3.72;;
68250;SDS011;55066;51.560;4.642;2023-03-05T02:14:35;10.03;;;3.17;;
68250;SDS011;55066;51.560;4.642;2023-03-05T02:17:03;8.02;;;3.03;;
68250;SDS011;55066;51.560;4.642;2023-03-05T02:19:29;14.00;;;3.88;;
68250;SDS011;55066;51.560;4.642;2023-03-05T02:22:22;11.52;;;3.35;;
68250;SDS011;55066;51.560;4.642;2023-03-05T02:24:48;12.10;;;3.63;;
68250;SDS011;55066;51.560;4.642;2023-03-05T02:27:15;12.27;;;3.40;;
68250;SDS011;55066;51.560;4.642;2023-03-05T02:29:42;11.40;;;3.80;;
68250;SDS011;55066;51.560;4.642;2023-03-05T02:32:10;11.07;;;3.63;;
68250;SDS011;55066;51.560;4.642;2023-03-05T02:34:36;12.20;;;3.60;;
68250;SDS011;55066;51.560;4.642;2023-03-05T02:37:03;11.52;;;3.97;;
68250;SDS011;55066;51.560;4.642;2023-03-05T02:39:31;13.03;;;4.30;;
68250;SDS011;55066;51.560;4.642;2023-03-05T02:41:57;9.43;;;4.00;;
68250;SDS011;55066;51.560;4.642;2023-03-05T02:44:22;12.50;;;3.60;;
68250;SDS011;55066;51.560;4.642;2023-03-05T02:46:48;11.15;;;3.65;;
68250;SDS011;55066;51.560;4.642;2023-03-05T02:49:14;13.00;;;3.83;;
68250;SDS011;55066;51.560;4.642;2023-03-05T02:51:39;15.13;;;4.30;;
68250;SDS011;55066;51.560;4.642;2023-03-05T02:54:06;16.58;;;4.57;;
68250;SDS011;55066;51.560;4.642;2023-03-05T02:56:33;11.43;;;4.22;;
68250;SDS011;55066;51.560;4.642;2023-03-05T02:59:00;15.68;;;4.68;;
68250;SDS011;55066;51.560;4.642;2023-03-05T03:01:26;12.98;;;4.50;;
68250;SDS011;55066;51.560;4.642;2023-03-05T03:03:54;10.40;;;4.47;;
68250;SDS011;55066;51.560;4.642;2023-03-05T03:06:20;15.10;;;4.40;;
68250;SDS011;55066;51.560;4.642;2023-03-05T03:08:46;16.63;;;4.37;;
68250;SDS011;55066;51.560;4.642;2023-03-05T03:11:12;11.85;;;4.10;;
68250;SDS011;55066;51.560;4.642;2023-03-05T03:13:37;10.30;;;3.73;;
68250;SDS011;55066;51.560;4.642;2023-03-05T03:16:07;13.73;;;4.30;;
68250;SDS011;55066;51.560;4.642;2023-03-05T03:18:35;14.18;;;4.20;;
68250;SDS011;55066;51.560;4.642;2023-03-05T03:21:03;11.57;;;3.85;;
68250;SDS011;55066;51.560;4.642;2023-03-05T03:23:29;15.53;;;4.33;;
68250;SDS011;55066;51.560;4.642;2023-03-05T03:25:56;11.85;;;4.30;;
68250;SDS011;55066;51.560;4.642;2023-03-05T03:28:22;10.52;;;3.75;;
68250;SDS011;55066;51.560;4.642;2023-03-05T03:30:47;11.20;;;3.77;;
68250;SDS011;55066;51.560;4.642;2023-03-05T03:33:13;13.00;;;3.92;;
68250;SDS011;55066;51.560;4.642;2023-03-05T03:35:38;13.10;;;3.77;;
68250;SDS011;55066;51.560;4.642;2023-03-05T03:38:04;10.00;;;4.03;;
68250;SDS011;55066;51.560;4.642;2023-03-05T03:40:30;11.15;;;3.80;;
68250;SDS011;55066;51.560;4.642;2023-03-05T03:42:55;10.90;;;3.83;;
68250;SDS011;55066;51.560;4.642;2023-03-05T03:45:21;14.38;;;3.60;;
68250;SDS011;55066;51.560;4.642;2023-03-05T03:47:48;8.20;;;3.20;;
68250;SDS011;55066;51.560;4.642;2023-03-05T03:50:13;11.52;;;3.83;;
68250;SDS011;55066;51.560;4.642;2023-03-05T03:52:39;13.43;;;3.23;;
68250;SDS011;55066;51.560;4.642;2023-03-05T03:55:04;11.20;;;3.90;;
68250;SDS011;55066;51.560;4.642;2023-03-05T03:57:30;11.00;;;3.37;;
68250;SDS011;55066;51.560;4.642;2023-03-05T03:59:57;9.50;;;3.20;;
68250;SDS011;55066;51.560;4.642;2023-03-05T04:02:24;13.02;;;3.72;;
68250;SDS011;55066;51.560;4.642;2023-03-05T04:04:51;15.40;;;3.60;;
68250;SDS011;55066;51.560;4.642;2023-03-05T04:07:17;14.80;;;3.85;;
68250;SDS011;55066;51.560;4.642;2023-03-05T04:09:43;10.03;;;3.17;;
68250;SDS011;55066;51.560;4.642;2023-03-05T04:12:08;12.18;;;3.38;;
68250;SDS011;55066;51.560;4.642;2023-03-05T04:14:34;11.63;;;3.17;;
68250;SDS011;55066;51.560;4.642;2023-03-05T04:17:00;8.68;;;3.00;;
68250;SDS011;55066;51.560;4.642;2023-03-05T04:19:25;9.60;;;3.10;;
68250;SDS011;55066;51.560;4.642;2023-03-05T04:21:52;11.15;;;2.95;;
68250;SDS011;55066;51.560;4.642;2023-03-05T04:24:17;9.97;;;2.70;;
68250;SDS011;55066;51.560;4.642;2023-03-05T04:26:43;13.77;;;2.73;;
68250;SDS011;55066;51.560;4.642;2023-03-05T04:29:08;10.03;;;2.63;;
68250;SDS011;55066;51.560;4.642;2023-03-05T04:31:34;6.55;;;2.45;;
68250;SDS011;55066;51.560;4.642;2023-03-05T04:33:59;7.13;;;2.03;;
68250;SDS011;55066;51.560;4.642;2023-03-05T04:36:25;10.03;;;2.40;;
68250;SDS011;55066;51.560;4.642;2023-03-05T04:38:50;8.97;;;2.97;;
68250;SDS011;55066;51.560;4.642;2023-03-05T04:41:15;9.33;;;2.50;;
68250;SDS011;55066;51.560;4.642;2023-03-05T04:43:41;12.32;;;2.35;;
68250;SDS011;55066;51.560;4.642;2023-03-05T04:46:06;8.63;;;2.40;;
68250;SDS011;55066;51.560;4.642;2023-03-05T04:48:32;9.13;;;2.10;;
68250;SDS011;55066;51.560;4.642;2023-03-05T04:50:57;12.07;;;2.60;;
68250;SDS011;55066;51.560;4.642;2023-03-05T04:53:23;9.43;;;2.22;;
68250;SDS011;55066;51.560;4.642;2023-03-05T04:55:53;9.97;;;2.20;;
68250;SDS011;55066;51.560;4.642;2023-03-05T04:58:20;6.85;;;2.28;;
68250;SDS011;55066;51.560;4.642;2023-03-05T05:00:46;9.73;;;2.38;;
68250;SDS011;55066;51.560;4.642;2023-03-05T05:03:11;11.00;;;2.40;;
68250;SDS011;55066;51.560;4.642;2023-03-05T05:05:36;10.85;;;2.33;;
68250;SDS011;55066;51.560;4.642;2023-03-05T05:08:02;8.43;;;2.50;;
68250;SDS011;55066;51.560;4.642;2023-03-05T05:10:27;6.13;;;2.03;;
68250;SDS011;55066;51.560;4.642;2023-03-05T05:12:53;9.03;;;2.30;;
68250;SDS011;55066;51.560;4.642;2023-03-05T05:15:19;8.65;;;2.53;;
68250;SDS011;55066;51.560;4.642;2023-03-05T05:17:44;9.07;;;2.37;;
68250;SDS011;55066;51.560;4.642;2023-03-05T05:20:10;7.47;;;2.17;;
68250;SDS011;55066;51.560;4.642;2023-03-05T05:22:38;8.80;;;2.00;;
68250;SDS011;55066;51.560;4.642;2023-03-05T05:25:04;6.53;;;2.00;;
68250;SDS011;55066;51.560;4.642;2023-03-05T05:27:30;8.07;;;1.80;;
68250;SDS011;55066;51.560;4.642;2023-03-05T05:29:55;6.80;;;1.97;;
68250;SDS011;55066;51.560;4.642;2023-03-05T05:32:21;8.43;;;1.87;;
68250;SDS011;55066;51.560;4.642;2023-03-05T05:34:48;3.67;;;1.48;;
68250;SDS011;55066;51.560;4.642;2023-03-05T05:37:17;4.47;;;1.60;;
68250;SDS011;55066;51.560;4.642;2023-03-05T05:39:43;11.27;;;2.57;;
68250;SDS011;55066;51.560;4.642;2023-03-05T05:42:14;5.07;;;1.42;;
68250;SDS011;55066;51.560;4.642;2023-03-05T05:44:44;4.60;;;1.42;;
68250;SDS011;55066;51.560;4.642;2023-03-05T05:47:11;5.47;;;1.70;;
68250;SDS011;55066;51.560;4.642;2023-03-05T05:49:36;5.67;;;1.70;;
68250;SDS011;55066;51.560;4.642;2023-03-05T05:52:02;10.17;;;1.97;;
68250;SDS011;55066;51.560;4.642;2023-03-05T05:54:27;8.38;;;1.67;;
68250;SDS011;55066;51.560;4.642;2023-03-05T05:56:53;4.73;;;1.13;;
68250;SDS011;55066;51.560;4.642;2023-03-05T05:59:18;6.80;;;1.90;;
68250;SDS011;55066;51.560;4.642;2023-03-05T06:01:43;10.93;;;2.00;;
68250;SDS011;55066;51.560;4.642;2023-03-05T06:04:10;5.72;;;1.60;;
68250;SDS011;55066;51.560;4.642;2023-03-05T06:06:36;3.80;;;1.63;;
68250;SDS011;55066;51.560;4.642;2023-03-05T06:09:02;5.45;;;1.33;;
68250;SDS011;55066;51.560;4.642;2023-03-05T06:11:27;5.13;;;1.50;;
68250;SDS011;55066;51.560;4.642;2023-03-05T06:13:53;3.70;;;1.30;;
68250;SDS011;55066;51.560;4.642;2023-03-05T06:16:20;6.97;;;1.67;;
68250;SDS011;55066;51.560;4.642;2023-03-05T06:18:48;7.45;;;1.98;;
68250;SDS011;55066;51.560;4.642;2023-03-05T06:21:15;8.57;;;2.08;;
68250;SDS011;55066;51.560;4.642;2023-03-05T06:23:43;6.00;;;1.83;;
68250;SDS011;55066;51.560;4.642;2023-03-05T06:26:10;5.25;;;1.80;;
68250;SDS011;55066;51.560;4.642;2023-03-05T06:28:37;6.32;;;2.35;;
68250;SDS011;55066;51.560;4.642;2023-03-05T06:31:05;7.47;;;2.22;;
68250;SDS011;55066;51.560;4.642;2023-03-05T06:33:35;6.10;;;1.65;;
68250;SDS011;55066;51.560;4.642;2023-03-05T06:36:04;8.73;;;1.97;;
68250;SDS011;55066;51.560;4.642;2023-03-05T06:38:32;5.22;;;1.70;;
68250;SDS011;55066;51.560;4.642;2023-03-05T06:41:01;7.93;;;1.95;;
68250;SDS011;55066;51.560;4.642;2023-03-05T06:43:34;7.57;;;1.67;;
68250;SDS011;55066;51.560;4.642;2023-03-05T06:46:06;6.60;;;1.30;;
68250;SDS011;55066;51.560;4.642;2023-03-05T06:48:34;3.70;;;1.30;;
68250;SDS011;55066;51.560;4.642;2023-03-05T06:51:00;3.95;;;1.55;;
68250;SDS011;55066;51.560;4.642;2023-03-05T06:53:26;7.43;;;1.70;;
68250;SDS011;55066;51.560;4.642;2023-03-05T06:55:52;4.63;;;1.25;;
68250;SDS011;55066;51.560;4.642;2023-03-05T06:58:17;4.23;;;1.17;;
68250;SDS011;55066;51.560;4.642;2023-03-05T07:00:43;7.28;;;1.50;;
68250;SDS011;55066;51.560;4.642;2023-03-05T07:03:09;6.87;;;1.50;;
68250;SDS011;55066;51.560;4.642;2023-03-05T07:05:39;4.90;;;1.48;;
68250;SDS011;55066;51.560;4.642;2023-03-05T07:08:05;6.13;;;1.35;;
68250;SDS011;55066;51.560;4.642;2023-03-05T07:10:30;6.83;;;1.70;;
68250;SDS011;55066;51.560;4.642;2023-03-05T07:12:56;5.47;;;1.67;;
68250;SDS011;55066;51.560;4.642;2023-03-05T07:15:23;3.85;;;1.58;;
68250;SDS011;55066;51.560;4.642;2023-03-05T07:17:48;6.28;;;1.90;;
68250;SDS011;55066;51.560;4.642;2023-03-05T07:20:14;5.97;;;1.63;;
68250;SDS011;55066;51.560;4.642;2023-03-05T07:22:39;6.37;;;1.50;;
68250;SDS011;55066;51.560;4.642;2023-03-05T07:25:05;7.27;;;1.60;;
68250;SDS011;55066;51.560;4.642;2023-03-05T07:27:35;11.10;;;1.80;;
68250;SDS011;55066;51.560;4.642;2023-03-05T07:30:02;8.68;;;1.65;;
68250;SDS011;55066;51.560;4.642;2023-03-05T07:32:28;3.85;;;1.40;;
68250;SDS011;55066;51.560;4.642;2023-03-05T07:34:53;6.53;;;1.57;;
68250;SDS011;55066;51.560;4.642;2023-03-05T07:37:19;5.33;;;1.30;;
68250;SDS011;55066;51.560;4.642;2023-03-05T07:39:44;7.65;;;2.00;;
68250;SDS011;55066;51.560;4.642;2023-03-05T07:42:09;6.32;;;1.63;;
68250;SDS011;55066;51.560;4.642;2023-03-05T07:44:49;6.43;;;1.97;;
68250;SDS011;55066;51.560;4.642;2023-03-05T07:47:14;8.20;;;1.92;;
68250;SDS011;55066;51.560;4.642;2023-03-05T07:49:39;7.17;;;2.33;;
68250;SDS011;55066;51.560;4.642;2023-03-05T07:52:06;5.72;;;1.90;;
68250;SDS011;55066;51.560;4.642;2023-03-05T07:54:33;6.57;;;1.53;;
68250;SDS011;55066;51.560;4.642;2023-03-05T07:57:02;5.05;;;1.58;;
68250;SDS011;55066;51.560;4.642;2023-03-05T07:59:28;6.13;;;1.85;;
68250;SDS011;55066;51.560;4.642;2023-03-05T08:01:53;5.47;;;1.83;;
68250;SDS011;55066;51.560;4.642;2023-03-05T08:04:19;7.13;;;1.83;;
68250;SDS011;55066;51.560;4.642;2023-03-05T08:06:44;5.28;;;1.77;;
68250;SDS011;55066;51.560;4.642;2023-03-05T08:09:11;7.60;;;1.90;;
68250;SDS011;55066;51.560;4.642;2023-03-05T08:11:38;6.85;;;2.03;;
68250;SDS011;55066;51.560;4.642;2023-03-05T08:14:04;10.27;;;3.15;;
68250;SDS011;55066;51.560;4.642;2023-03-05T08:16:29;10.30;;;2.23;;
68250;SDS011;55066;51.560;4.642;2023-03-05T08:18:55;5.30;;;2.05;;
68250;SDS011;55066;51.560;4.642;2023-03-05T08:21:23;7.13;;;1.80;;
68250;SDS011;55066;51.560;4.642;2023-03-05T08:23:53;4.75;;;1.30;;
68250;SDS011;55066;51.560;4.642;2023-03-05T08:26:20;6.63;;;1.48;;
68250;SDS011;55066;51.560;4.642;2023-03-05T08:28:47;6.05;;;1.60;;
68250;SDS011;55066;51.560;4.642;2023-03-05T08:31:13;7.05;;;1.70;;
68250;SDS011;55066;51.560;4.642;2023-03-05T08:33:41;4.90;;;1.90;;
68250;SDS011;55066;51.560;4.642;2023-03-05T08:36:07;4.80;;;1.88;;
68250;SDS011;55066;51.560;4.642;2023-03-05T08:38:34;4.68;;;1.45;;
68250;SDS011;55066;51.560;4.642;2023-03-05T08:41:00;4.85;;;1.60;;
68250;SDS011;55066;51.560;4.642;2023-03-05T08:43:26;6.70;;;1.60;;
68250;SDS011;55066;51.560;4.642;2023-03-05T08:45:51;7.03;;;1.48;;
68250;SDS011;55066;51.560;4.642;2023-03-05T08:48:18;4.22;;;1.60;;
68250;SDS011;55066;51.560;4.642;2023-03-05T08:50:44;5.28;;;1.67;;
68250;SDS011;55066;51.560;4.642;2023-03-05T08:53:09;6.63;;;1.67;;
68250;SDS011;55066;51.560;4.642;2023-03-05T08:55:35;6.20;;;1.70;;
68250;SDS011;55066;51.560;4.642;2023-03-05T08:58:01;4.70;;;1.40;;
68250;SDS011;55066;51.560;4.642;2023-03-05T09:00:27;8.02;;;1.58;;
68250;SDS011;55066;51.560;4.642;2023-03-05T09:02:52;9.03;;;2.23;;
68250;SDS011;55066;51.560;4.642;2023-03-05T09:05:17;6.03;;;2.00;;
68250;SDS011;55066;51.560;4.642;2023-03-05T09:07:43;7.15;;;2.00;;
68250;SDS011;55066;51.560;4.642;2023-03-05T09:10:09;4.17;;;1.73;;
68250;SDS011;55066;51.560;4.642;2023-03-05T09:12:37;4.80;;;1.90;;
68250;SDS011;55066;51.560;4.642;2023-03-05T09:15:04;5.43;;;1.60;;
68250;SDS011;55066;51.560;4.642;2023-03-05T09:17:32;4.43;;;1.67;;
68250;SDS011;55066;51.560;4.642;2023-03-05T09:19:59;7.78;;;2.50;;
68250;SDS011;55066;51.560;4.642;2023-03-05T09:22:24;4.30;;;1.55;;
68250;SDS011;55066;51.560;4.642;2023-03-05T09:24:50;5.53;;;1.50;;
68250;SDS011;55066;51.560;4.642;2023-03-05T09:27:15;5.13;;;1.60;;
68250;SDS011;55066;51.560;4.642;2023-03-05T09:29:41;6.23;;;1.60;;
68250;SDS011;55066;51.560;4.642;2023-03-05T09:32:06;7.63;;;1.73;;
68250;SDS011;55066;51.560;4.642;2023-03-05T09:34:32;4.43;;;1.10;;
68250;SDS011;55066;51.560;4.642;2023-03-05T09:36:58;3.42;;;1.10;;
68250;SDS011;55066;51.560;4.642;2023-03-05T09:39:24;2.63;;;1.02;;
68250;SDS011;55066;51.560;4.642;2023-03-05T09:45:11;3.38;;;1.00;;
68250;SDS011;55066;51.560;4.642;2023-03-05T09:52:52;4.93;;;1.30;;
68250;SDS011;55066;51.560;4.642;2023-03-05T09:55:26;3.20;;;1.15;;
68250;SDS011;55066;51.560;4.642;2023-03-05T09:57:53;3.08;;;1.30;;
68250;SDS011;55066;51.560;4.642;2023-03-05T10:03:31;4.13;;;1.23;;
68250;SDS011;55066;51.560;4.642;2023-03-05T10:06:18;3.80;;;1.13;;
68250;SDS011;55066;51.560;4.642;2023-03-05T10:08:51;3.10;;;1.00;;
68250;SDS011;55066;51.560;4.642;2023-03-05T10:14:06;2.13;;;0.80;;
68250;SDS011;55066;51.560;4.642;2023-03-05T10:27:57;4.47;;;1.10;;
68250;SDS011;55066;51.560;4.642;2023-03-05T10:30:46;2.03;;;0.75;;
68250;SDS011;55066;51.560;4.642;2023-03-05T10:44:16;3.00;;;0.70;;
68250;SDS011;55066;51.560;4.642;2023-03-05T10:52:40;3.10;;;1.08;;
68250;SDS011;55066;51.560;4.642;2023-03-05T10:55:13;5.18;;;1.60;;
68250;SDS011;55066;51.560;4.642;2023-03-05T10:57:40;9.82;;;1.92;;
68250;SDS011;55066;51.560;4.642;2023-03-05T11:05:47;4.07;;;1.38;;
68250;SDS011;55066;51.560;4.642;2023-03-05T11:08:34;5.83;;;2.00;;
68250;SDS011;55066;51.560;4.642;2023-03-05T11:11:19;3.35;;;1.30;;
68250;SDS011;55066;51.560;4.642;2023-03-05T11:13:53;3.97;;;2.00;;
68250;SDS011;55066;51.560;4.642;2023-03-05T11:16:26;3.20;;;1.48;;
68250;SDS011;55066;51.560;4.642;2023-03-05T11:21:41;5.53;;;1.70;;
68250;SDS011;55066;51.560;4.642;2023-03-05T11:29:15;4.00;;;2.00;;
68250;SDS011;55066;51.560;4.642;2023-03-05T11:31:43;9.95;;;1.90;;
68250;SDS011;55066;51.560;4.642;2023-03-05T11:36:41;8.80;;;2.47;;
68250;SDS011;55066;51.560;4.642;2023-03-05T11:39:27;5.72;;;2.53;;
68250;SDS011;55066;51.560;4.642;2023-03-05T11:42:04;5.28;;;1.98;;
68250;SDS011;55066;51.560;4.642;2023-03-05T11:44:34;7.72;;;2.20;;
68250;SDS011;55066;51.560;4.642;2023-03-05T11:47:12;6.45;;;2.35;;
68250;SDS011;55066;51.560;4.642;2023-03-05T11:49:42;4.65;;;1.77;;
68250;SDS011;55066;51.560;4.642;2023-03-05T11:52:11;8.63;;;1.80;;
68250;SDS011;55066;51.560;4.642;2023-03-05T11:57:16;4.93;;;1.60;;
68250;SDS011;55066;51.560;4.642;2023-03-05T11:59:42;3.17;;;1.58;;
68250;SDS011;55066;51.560;4.642;2023-03-05T12:02:13;7.40;;;1.50;;
68250;SDS011;55066;51.560;4.642;2023-03-05T12:04:42;4.50;;;1.35;;
68250;SDS011;55066;51.560;4.642;2023-03-05T12:07:08;3.57;;;1.50;;
68250;SDS011;55066;51.560;4.642;2023-03-05T12:09:49;7.53;;;1.70;;
68250;SDS011;55066;51.560;4.642;2023-03-05T12:12:29;5.88;;;1.67;;
68250;SDS011;55066;51.560;4.642;2023-03-05T12:15:05;3.47;;;1.48;;
68250;SDS011;55066;51.560;4.642;2023-03-05T12:23:22;7.40;;;1.58;;
68250;SDS011;55066;51.560;4.642;2023-03-05T12:25:52;10.30;;;1.50;;
68250;SDS011;55066;51.560;4.642;2023-03-05T12:38:51;2.97;;;0.90;;
68250;SDS011;55066;51.560;4.642;2023-03-05T12:46:31;3.50;;;1.40;;
68250;SDS011;55066;51.560;4.642;2023-03-05T12:49:45;2.55;;;1.00;;
68250;SDS011;55066;51.560;4.642;2023-03-05T12:51:55;2.40;;;0.90;;
68250;SDS011;55066;51.560;4.642;2023-03-05T12:54:27;2.47;;;1.00;;
68250;SDS011;55066;51.560;4.642;2023-03-05T12:57:03;2.53;;;0.80;;
68250;SDS011;55066;51.560;4.642;2023-03-05T12:59:57;6.07;;;0.83;;
68250;SDS011;55066;51.560;4.642;2023-03-05T13:02:39;4.72;;;0.90;;
68250;SDS011;55066;51.560;4.642;2023-03-05T13:05:22;2.08;;;0.90;;
68250;SDS011;55066;51.560;4.642;2023-03-05T13:07:48;2.67;;;1.00;;
68250;SDS011;55066;51.560;4.642;2023-03-05T13:10:25;3.83;;;1.55;;
68250;SDS011;55066;51.560;4.642;2023-03-05T13:12:53;3.07;;;1.13;;
68250;SDS011;55066;51.560;4.642;2023-03-05T13:15:21;4.20;;;1.20;;
68250;SDS011;55066;51.560;4.642;2023-03-05T13:17:53;3.53;;;0.90;;
68250;SDS011;55066;51.560;4.642;2023-03-05T13:20:22;2.10;;;0.70;;
68250;SDS011;55066;51.560;4.642;2023-03-05T13:26:02;5.32;;;1.30;;
68250;SDS011;55066;51.560;4.642;2023-03-05T13:28:34;4.75;;;1.80;;
68250;SDS011;55066;51.560;4.642;2023-03-05T13:31:09;9.13;;;1.80;;
68250;SDS011;55066;51.560;4.642;2023-03-05T13:33:38;5.55;;;1.67;;
68250;SDS011;55066;51.560;4.642;2023-03-05T13:36:03;3.53;;;1.80;;
68250;SDS011;55066;51.560;4.642;2023-03-05T13:38:32;3.15;;;1.48;;
68250;SDS011;55066;51.560;4.642;2023-03-05T13:41:03;5.28;;;1.60;;
68250;SDS011;55066;51.560;4.642;2023-03-05T13:43:29;7.20;;;1.75;;
68250;SDS011;55066;51.560;4.642;2023-03-05T13:45:55;3.57;;;1.33;;
68250;SDS011;55066;51.560;4.642;2023-03-05T13:48:20;2.20;;;0.93;;
68250;SDS011;55066;51.560;4.642;2023-03-05T13:50:47;3.25;;;1.05;;
68250;SDS011;55066;51.560;4.642;2023-03-05T13:55:51;2.90;;;1.30;;
68250;SDS011;55066;51.560;4.642;2023-03-05T14:01:44;4.35;;;1.48;;
68250;SDS011;55066;51.560;4.642;2023-03-05T14:09:26;4.15;;;1.10;;
68250;SDS011;55066;51.560;4.642;2023-03-05T14:11:57;2.45;;;0.93;;
68250;SDS011;55066;51.560;4.642;2023-03-05T14:14:25;3.15;;;1.60;;
68250;SDS011;55066;51.560;4.642;2023-03-05T14:16:52;2.88;;;1.10;;
68250;SDS011;55066;51.560;4.642;2023-03-05T14:19:36;4.07;;;1.00;;
68250;SDS011;55066;51.560;4.642;2023-03-05T14:22:04;3.53;;;0.80;;
68250;SDS011;55066;51.560;4.642;2023-03-05T14:24:30;1.75;;;0.70;;
68250;SDS011;55066;51.560;4.642;2023-03-05T14:29:29;4.10;;;0.90;;
68250;SDS011;55066;51.560;4.642;2023-03-05T14:32:00;2.60;;;1.10;;
68250;SDS011;55066;51.560;4.642;2023-03-05T14:37:01;3.45;;;0.90;;
68250;SDS011;55066;51.560;4.642;2023-03-05T14:39:39;2.97;;;1.00;;
68250;SDS011;55066;51.560;4.642;2023-03-05T14:47:34;1.90;;;0.80;;
68250;SDS011;55066;51.560;4.642;2023-03-05T14:49:59;2.13;;;0.67;;
68250;SDS011;55066;51.560;4.642;2023-03-05T14:52:24;2.47;;;0.87;;
68250;SDS011;55066;51.560;4.642;2023-03-05T14:54:50;5.20;;;0.88;;
68250;SDS011;55066;51.560;4.642;2023-03-05T14:57:20;2.60;;;1.10;;
68250;SDS011;55066;51.560;4.642;2023-03-05T14:59:49;4.00;;;1.30;;
68250;SDS011;55066;51.560;4.642;2023-03-05T15:02:16;3.30;;;1.00;;
68250;SDS011;55066;51.560;4.642;2023-03-05T15:04:43;2.42;;;0.85;;
68250;SDS011;55066;51.560;4.642;2023-03-05T15:07:20;2.23;;;0.90;;
68250;SDS011;55066;51.560;4.642;2023-03-05T15:09:54;3.60;;;0.90;;
68250;SDS011;55066;51.560;4.642;2023-03-05T15:12:22;2.67;;;0.88;;
68250;SDS011;55066;51.560;4.642;2023-03-05T15:14:52;3.63;;;0.90;;
68250;SDS011;55066;51.560;4.642;2023-03-05T15:17:25;5.55;;;1.38;;
68250;SDS011;55066;51.560;4.642;2023-03-05T15:20:00;5.10;;;1.07;;
68250;SDS011;55066;51.560;4.642;2023-03-05T15:22:25;4.53;;;1.02;;
68250;SDS011;55066;51.560;4.642;2023-03-05T15:24:51;2.50;;;0.80;;
68250;SDS011;55066;51.560;4.642;2023-03-05T15:27:16;6.72;;;0.90;;
68250;SDS011;55066;51.560;4.642;2023-03-05T15:29:42;3.43;;;0.90;;
68250;SDS011;55066;51.560;4.642;2023-03-05T15:32:08;2.35;;;0.90;;
68250;SDS011;55066;51.560;4.642;2023-03-05T15:34:34;3.37;;;0.70;;
68250;SDS011;55066;51.560;4.642;2023-03-05T15:37:00;2.88;;;0.73;;
68250;SDS011;55066;51.560;4.642;2023-03-05T15:39:26;2.47;;;0.80;;
68250;SDS011;55066;51.560;4.642;2023-03-05T15:41:52;3.75;;;0.90;;
68250;SDS011;55066;51.560;4.642;2023-03-05T15:44:18;2.13;;;0.90;;
68250;SDS011;55066;51.560;4.642;2023-03-05T15:46:44;3.80;;;1.27;;
68250;SDS011;55066;51.560;4.642;2023-03-05T15:49:09;2.80;;;1.00;;
68250;SDS011;55066;51.560;4.642;2023-03-05T15:51:35;4.10;;;1.20;;
68250;SDS011;55066;51.560;4.642;2023-03-05T15:54:00;4.27;;;1.10;;
68250;SDS011;55066;51.560;4.642;2023-03-05T15:56:26;3.87;;;1.17;;
68250;SDS011;55066;51.560;4.642;2023-03-05T15:58:52;3.00;;;1.10;;
68250;SDS011;55066;51.560;4.642;2023-03-05T16:01:17;6.53;;;1.37;;
68250;SDS011;55066;51.560;4.642;2023-03-05T16:03:44;2.63;;;1.00;;
68250;SDS011;55066;51.560;4.642;2023-03-05T16:06:13;4.75;;;1.40;;
68250;SDS011;55066;51.560;4.642;2023-03-05T16:08:44;4.35;;;0.90;;
68250;SDS011;55066;51.560;4.642;2023-03-05T16:11:10;4.95;;;1.15;;
68250;SDS011;55066;51.560;4.642;2023-03-05T16:13:37;3.70;;;1.00;;
68250;SDS011;55066;51.560;4.642;2023-03-05T16:16:03;4.57;;;1.05;;
68250;SDS011;55066;51.560;4.642;2023-03-05T16:18:30;2.88;;;0.93;;
68250;SDS011;55066;51.560;4.642;2023-03-05T16:20:58;4.93;;;1.10;;
68250;SDS011;55066;51.560;4.642;2023-03-05T16:23:24;4.90;;;0.93;;
68250;SDS011;55066;51.560;4.642;2023-03-05T16:25:50;3.53;;;1.10;;
68250;SDS011;55066;51.560;4.642;2023-03-05T16:28:15;5.50;;;1.30;;
68250;SDS011;55066;51.560;4.642;2023-03-05T16:30:41;4.53;;;1.17;;
68250;SDS011;55066;51.560;4.642;2023-03-05T16:33:07;2.95;;;1.00;;
68250;SDS011;55066;51.560;4.642;2023-03-05T16:35:32;5.63;;;1.40;;
68250;SDS011;55066;51.560;4.642;2023-03-05T16:37:58;5.13;;;1.43;;
68250;SDS011;55066;51.560;4.642;2023-03-05T16:40:23;6.03;;;1.63;;